Time;durP1;ratioP1;P1;durP2;ratioP2;P2;SDS_P1;SDS_P2;PMS_P1;PMS_P2;Temp;Humidity;BMP_temperature;BMP_pressure;BME280_temperature;BME280_humidity;BME280_pressure;Samples;Min_cycle;Max_cycle;Signal;HPM_P1;HPM_P2
2022/03/12 00:01:14;;;;;;;;;;;;;;;2.17;28.46;98287.69;5069049;28;19925;-82
2022/03/12 00:03:42;;;;;;;;;;;;;;;2.19;28.73;98285.59;5061919;28;20012;-83
2022/03/12 00:06:10;;;;;;;;;;;;;;;2.42;27.31;98289.09;5067531;28;19935;-81
2022/03/12 00:08:43;;;;;;;;;;;;;;;2.23;28.15;98291.22;5070092;28;19928;-81
2022/03/12 00:11:14;;;;;;;;;;;;;;;2.34;28.45;98299.19;5070225;28;19928;-82
2022/03/12 00:13:42;;;;;;;;;;;;;;;2.28;27.66;98299.34;5069403;28;19924;-81
2022/03/12 00:16:13;;;;;;;;;;;;;;;2.32;27.51;98300.47;5069846;28;19968;-80
2022/03/12 00:18:42;;;;;;;;;;;;;;;2.35;27.88;98310.72;5070244;28;19924;-81
2022/03/12 00:21:14;;;;;;;;;;;;;;;2.24;28.09;98312.47;5068818;28;20015;-81
2022/03/12 00:23:49;;;;;;;;;;;;;;;2.28;27.94;98310.06;5070056;28;20298;-82
2022/03/12 00:26:17;;;;;;;;;;;;;;;2.30;28.40;98302.63;5063950;28;19928;-81
2022/03/12 00:28:45;;;;;;;;;;;;;;;2.33;28.31;98296.72;5069486;28;19924;-81
2022/03/12 00:31:15;;;;;;;;;;;;;;;2.23;29.31;98302.78;5067831;28;19925;-82
2022/03/12 00:33:43;;;;;;;;;;;;;;;2.06;29.32;98308.16;5068262;28;20302;-83
2022/03/12 00:36:12;;;;;;;;;;;;;;;2.02;28.65;98306.22;5067307;28;19924;-83
2022/03/12 00:38:40;;;;;;;;;;;;;;;2.10;28.33;98303.13;5063529;28;19928;-80
2022/03/12 00:41:17;;;;;;;;;;;;;;;2.14;28.84;98295.41;5065324;28;19932;-81
2022/03/12 00:43:45;;;;;;;;;;;;;;;2.05;29.13;98311.09;5070874;28;19925;-79
2022/03/12 00:46:13;;;;;;;;;;;;;;;1.96;29.01;98310.69;5072411;28;19933;-81
2022/03/12 00:48:43;;;;;;;;;;;;;;;1.76;29.38;98313.09;5072987;28;20358;-79
2022/03/12 00:51:11;;;;;;;;;;;;;;;1.69;29.48;98323.13;5064046;28;19928;-80
2022/03/12 00:53:41;;;;;;;;;;;;;;;1.78;29.30;98311.78;5073301;28;19964;-81
2022/03/12 00:56:09;;;;;;;;;;;;;;;1.88;29.14;98323.72;5072155;28;19998;-81
2022/03/12 00:58:37;;;;;;;;;;;;;;;1.75;29.12;98322.16;5070352;28;19925;-79
2022/03/12 01:01:09;;;;;;;;;;;;;;;1.82;29.28;98323.63;5066274;28;19924;-82
2022/03/12 01:03:38;;;;;;;;;;;;;;;1.88;29.29;98327.19;5073086;28;19924;-81
2022/03/12 01:06:10;;;;;;;;;;;;;;;1.94;29.27;98325.41;5070109;28;20011;-82
2022/03/12 01:08:37;;;;;;;;;;;;;;;1.82;29.00;98336.22;5071984;28;19931;-82
2022/03/12 01:11:09;;;;;;;;;;;;;;;1.64;29.81;98325.75;5073766;28;19975;-82
2022/03/12 01:13:37;;;;;;;;;;;;;;;1.72;29.67;98317.31;5074447;28;19979;-81
2022/03/12 01:16:05;;;;;;;;;;;;;;;1.79;29.14;98331.34;5072895;28;19924;-83
2022/03/12 01:18:37;;;;;;;;;;;;;;;1.61;29.89;98324.38;5071860;28;19959;-82
2022/03/12 01:21:14;;;;;;;;;;;;;;;1.68;29.41;98318.84;5069483;28;19971;-81
2022/03/12 01:23:44;;;;;;;;;;;;;;;1.36;29.34;98323.94;5068539;28;19924;-80
2022/03/12 01:26:14;;;;;;;;;;;;;;;1.37;29.76;98312.16;5072089;28;19943;-81
2022/03/12 01:28:41;;;;;;;;;;;;;;;1.47;29.51;98315.84;5073671;28;19932;-81
2022/03/12 01:31:10;;;;;;;;;;;;;;;1.28;29.80;98311.78;5050057;28;19924;-80
2022/03/12 01:33:38;;;;;;;;;;;;;;;1.15;31.22;98315.53;5071737;28;20315;-81
2022/03/12 01:36:09;;;;;;;;;;;;;;;1.18;30.87;98317.75;5072159;28;20391;-82
2022/03/12 01:38:46;;;;;;;;;;;;;;;1.37;29.65;98318.34;5069510;28;19925;-80
2022/03/12 01:41:15;;;;;;;;;;;;;;;1.37;29.50;98318.34;5068926;28;20628;-80
2022/03/12 01:43:44;;;;;;;;;;;;;;;1.45;29.49;98323.31;5072828;28;19978;-80
2022/03/12 01:46:12;;;;;;;;;;;;;;;1.37;29.54;98321.00;5071452;28;19928;-81
2022/03/12 01:48:45;;;;;;;;;;;;;;;1.34;29.71;98316.16;5073679;28;20390;-80
2022/03/12 01:51:13;;;;;;;;;;;;;;;1.18;29.65;98319.63;5071781;28;19956;-78
2022/03/12 01:53:43;;;;;;;;;;;;;;;1.13;30.40;98316.84;5069423;28;20264;-80
2022/03/12 01:56:11;;;;;;;;;;;;;;;1.01;31.14;98319.56;5071385;28;19948;-80
2022/03/12 01:58:39;;;;;;;;;;;;;;;1.09;30.50;98323.72;5052882;28;19925;-80
2022/03/12 02:01:10;;;;;;;;;;;;;;;1.25;30.09;98314.91;5054601;28;19924;-82
2022/03/12 02:03:38;;;;;;;;;;;;;;;1.16;30.09;98319.03;5073606;28;19932;-81
2022/03/12 02:06:09;;;;;;;;;;;;;;;1.19;30.90;98316.69;5071547;28;19924;-84
2022/03/12 02:08:37;;;;;;;;;;;;;;;1.01;30.63;98312.38;5053375;28;19924;-80
2022/03/12 02:11:10;;;;;;;;;;;;;;;1.27;30.24;98315.47;5070531;28;20319;-80
2022/03/12 02:13:38;;;;;;;;;;;;;;;1.16;30.77;98313.69;5075345;28;19960;-81
2022/03/12 02:16:08;;;;;;;;;;;;;;;1.02;30.74;98318.53;5071484;28;20423;-81
2022/03/12 02:18:37;;;;;;;;;;;;;;;1.05;30.45;98310.81;5071527;28;19980;-83
2022/03/12 02:21:31;;;;;;;;;;;;;;;1.29;30.10;98318.75;5072225;28;19924;-81
2022/03/12 02:24:00;;;;;;;;;;;;;;;1.28;30.20;98309.09;5073582;28;20617;-82
2022/03/12 02:26:28;;;;;;;;;;;;;;;1.13;31.05;98308.81;5073697;28;19950;-80
2022/03/12 02:28:57;;;;;;;;;;;;;;;1.16;30.85;98300.28;5060853;28;19937;-81
2022/03/12 02:31:26;;;;;;;;;;;;;;;1.17;30.58;98304.59;5064935;28;19928;-80
2022/03/12 02:33:55;;;;;;;;;;;;;;;1.07;29.99;98307.09;5049322;28;19924;-80
2022/03/12 02:36:26;;;;;;;;;;;;;;;0.90;31.76;98299.81;5069122;28;19972;-79
2022/03/12 02:38:55;;;;;;;;;;;;;;;0.88;31.25;98296.59;5069801;28;19924;-81
2022/03/12 02:41:25;;;;;;;;;;;;;;;0.73;30.95;98293.63;5067702;28;20034;-80
2022/03/12 02:43:54;;;;;;;;;;;;;;;0.54;31.09;98301.03;5053257;28;19969;-79
2022/03/12 02:46:25;;;;;;;;;;;;;;;0.70;31.59;98294.13;5056380;28;19925;-82
2022/03/12 02:48:53;;;;;;;;;;;;;;;0.89;31.19;98298.22;5050397;28;20031;-80
2022/03/12 02:51:22;;;;;;;;;;;;;;;1.03;30.62;98299.56;5033796;28;20383;-80
2022/03/12 02:53:51;;;;;;;;;;;;;;;1.05;30.64;98297.44;5051238;28;19924;-82
2022/03/12 02:56:19;;;;;;;;;;;;;;;0.92;31.28;98303.09;5051780;28;20008;-78
2022/03/12 02:58:48;;;;;;;;;;;;;;;0.98;30.86;98296.78;5051179;28;19925;-79
2022/03/12 03:01:16;;;;;;;;;;;;;;;1.03;31.03;98288.03;5051150;28;20656;-80
2022/03/12 03:03:45;;;;;;;;;;;;;;;0.98;31.07;98301.31;5041466;28;19925;-81
2022/03/12 03:06:14;;;;;;;;;;;;;;;0.79;31.55;98296.16;5048404;28;19936;-81
2022/03/12 03:09:07;;;;;;;;;;;;;;;0.98;31.38;98307.47;5049567;28;19978;-81
2022/03/12 03:12:03;;;;;;;;;;;;;;;0.91;31.86;98306.03;5050515;28;19925;-80
2022/03/12 03:14:33;;;;;;;;;;;;;;;0.95;31.12;98307.13;5049760;28;20011;-81
2022/03/12 03:17:09;;;;;;;;;;;;;;;0.77;31.81;98308.97;5051184;28;20401;-82
2022/03/12 03:19:37;;;;;;;;;;;;;;;0.96;31.54;98314.94;5051149;28;19929;-82
2022/03/12 03:22:06;;;;;;;;;;;;;;;0.92;31.27;98303.09;5049790;28;19932;-83
2022/03/12 03:24:35;;;;;;;;;;;;;;;0.93;31.67;98310.06;5050949;28;19955;-80
2022/03/12 03:27:03;;;;;;;;;;;;;;;1.03;31.53;98306.78;5047164;28;19936;-81
2022/03/12 03:29:31;;;;;;;;;;;;;;;1.10;30.99;98302.06;5050087;28;19932;-80
2022/03/12 03:32:01;;;;;;;;;;;;;;;1.00;31.14;98302.69;5048956;28;19940;-81
2022/03/12 03:34:30;;;;;;;;;;;;;;;0.99;31.57;98294.91;5050882;28;20397;-81
2022/03/12 03:36:58;;;;;;;;;;;;;;;0.98;31.60;98298.66;5049475;28;19928;-81
2022/03/12 03:39:26;;;;;;;;;;;;;;;0.72;32.35;98303.50;5047703;28;19925;-81
2022/03/12 03:41:54;;;;;;;;;;;;;;;0.61;32.14;98304.38;5046925;28;19975;-84
2022/03/12 03:44:24;;;;;;;;;;;;;;;0.78;31.33;98312.44;5050731;28;19932;-80
2022/03/12 03:46:53;;;;;;;;;;;;;;;0.81;31.39;98317.34;5066771;28;19966;-82
2022/03/12 03:49:22;;;;;;;;;;;;;;;0.62;32.13;98322.03;5069789;28;19964;-82
2022/03/12 03:51:59;;;;;;;;;;;;;;;0.88;30.96;98323.34;5069628;28;19924;-81
2022/03/12 03:54:29;;;;;;;;;;;;;;;0.97;31.23;98321.91;5069093;28;19932;-81
2022/03/12 03:56:57;;;;;;;;;;;;;;;0.94;31.07;98321.56;5070043;28;19936;-82
2022/03/12 03:59:28;;;;;;;;;;;;;;;0.75;31.38;98323.63;5047003;28;20036;-80
2022/03/12 04:01:56;;;;;;;;;;;;;;;0.66;31.69;98322.38;5068747;28;20323;-82
2022/03/12 04:04:28;;;;;;;;;;;;;;;0.74;31.48;98324.66;5068799;28;19928;-80
2022/03/12 04:06:57;;;;;;;;;;;;;;;0.45;32.59;98329.97;5066992;28;20005;-80
2022/03/12 04:09:25;;;;;;;;;;;;;;;0.72;31.33;98326.78;5066649;28;19928;-79
2022/03/12 04:11:53;;;;;;;;;;;;;;;0.84;31.52;98324.88;5050901;28;20417;-81
2022/03/12 04:14:25;;;;;;;;;;;;;;;0.68;32.40;98326.41;5066232;28;19940;-80
2022/03/12 04:16:53;;;;;;;;;;;;;;;0.76;31.84;98325.25;5068867;28;20301;-81
2022/03/12 04:19:23;;;;;;;;;;;;;;;0.72;31.65;98330.25;5068572;28;19932;-80
2022/03/12 04:21:54;;;;;;;;;;;;;;;0.72;31.68;98335.59;5068125;28;19930;-80
2022/03/12 04:24:25;;;;;;;;;;;;;;;0.86;31.75;98340.69;5066163;28;19924;-80
2022/03/12 04:26:53;;;;;;;;;;;;;;;0.62;31.72;98343.41;5058686;28;20011;-82
2022/03/12 04:29:21;;;;;;;;;;;;;;;0.62;32.08;98347.94;5058018;28;19924;-82
2022/03/12 04:31:48;;;;;;;;;;;;;;;0.62;31.73;98345.28;5065611;28;19932;-82
2022/03/12 04:34:17;;;;;;;;;;;;;;;0.84;31.60;98348.94;5062385;28;19928;-82
2022/03/12 04:36:45;;;;;;;;;;;;;;;0.78;32.29;98352.56;5060424;28;19984;-80
2022/03/12 04:39:14;;;;;;;;;;;;;;;0.64;31.34;98359.22;5063053;28;19951;-80
2022/03/12 04:41:42;;;;;;;;;;;;;;;0.44;32.13;98360.44;5051077;28;19986;-81
2022/03/12 04:44:10;;;;;;;;;;;;;;;0.55;32.40;98360.66;5063050;28;19935;-80
2022/03/12 04:46:39;;;;;;;;;;;;;;;0.45;32.33;98367.41;5049995;28;20436;-81
2022/03/12 04:49:07;;;;;;;;;;;;;;;0.54;32.27;98372.41;5047644;28;20008;-80
2022/03/12 04:51:35;;;;;;;;;;;;;;;0.44;32.37;98381.00;5045715;28;20287;-82
2022/03/12 04:54:04;;;;;;;;;;;;;;;0.59;32.46;98375.19;5043830;28;19932;-80
2022/03/12 04:56:33;;;;;;;;;;;;;;;0.53;32.29;98382.25;5046215;28;19924;-82
2022/03/12 04:59:01;;;;;;;;;;;;;;;0.61;32.16;98379.22;5044864;28;19928;-83
2022/03/12 05:01:54;;;;;;;;;;;;;;;0.54;32.27;98386.56;5044695;28;19992;-74
2022/03/12 05:04:28;;;;;;;;;;;;;;;0.50;32.22;98391.56;5043159;28;20417;-74
2022/03/12 05:06:56;;;;;;;;;;;;;;;0.48;33.20;98395.50;5048411;28;19973;-81
2022/03/12 05:09:24;;;;;;;;;;;;;;;0.33;32.81;98398.69;5045388;28;19971;-81
2022/03/12 05:11:55;;;;;;;;;;;;;;;0.42;32.91;98399.94;5045057;28;20334;-88
2022/03/12 05:14:22;;;;;;;;;;;;;;;0.33;33.04;98396.00;5049372;28;19925;-90
2022/03/12 05:16:50;;;;;;;;;;;;;;;0.44;32.88;98407.75;5031373;28;19925;-90
2022/03/12 05:19:20;;;;;;;;;;;;;;;0.57;32.72;98412.00;5046035;28;19956;-93
2022/03/12 05:21:48;;;;;;;;;;;;;;;0.44;32.61;98405.06;5048092;28;19988;-91
2022/03/12 05:24:17;;;;;;;;;;;;;;;0.46;32.83;98411.78;5041742;28;19929;-92
2022/03/12 05:26:45;;;;;;;;;;;;;;;0.45;33.09;98420.88;5049210;28;20382;-91
2022/03/12 05:29:16;;;;;;;;;;;;;;;0.52;33.14;98418.06;5032813;28;20387;-90
2022/03/12 05:31:43;;;;;;;;;;;;;;;0.57;32.71;98420.03;5051873;28;19925;-91
2022/03/12 05:34:11;;;;;;;;;;;;;;;0.36;33.05;98421.44;5051224;28;19925;-90
2022/03/12 05:36:41;;;;;;;;;;;;;;;0.27;33.53;98423.66;5049377;28;20418;-90
2022/03/12 05:39:09;;;;;;;;;;;;;;;0.46;32.75;98425.16;5035734;28;19932;-92
2022/03/12 05:41:38;;;;;;;;;;;;;;;0.46;32.61;98425.16;5051319;28;20023;-94
2022/03/12 05:44:07;;;;;;;;;;;;;;;0.46;33.00;98435.03;5055560;28;19936;-92
2022/03/12 05:46:41;;;;;;;;;;;;;;;0.39;33.31;98431.69;5064687;28;20000;-93
2022/03/12 05:49:10;;;;;;;;;;;;;;;0.36;33.34;98440.97;5073530;28;20418;-90
2022/03/12 05:51:38;;;;;;;;;;;;;;;0.37;33.34;98444.44;5064665;28;20035;-93
2022/03/12 05:54:07;;;;;;;;;;;;;;;0.59;33.04;98452.72;5075321;28;19995;-90
2022/03/12 05:56:40;;;;;;;;;;;;;;;0.72;31.74;98447.13;5080831;28;19925;-90
2022/03/12 05:59:11;;;;;;;;;;;;;;;0.79;31.82;98443.25;5049156;28;19928;-92
2022/03/12 06:01:43;;;;;;;;;;;;;;;0.80;32.19;98454.78;5071547;28;20031;-91
2022/03/12 06:04:12;;;;;;;;;;;;;;;0.79;31.67;98447.78;5075717;28;19925;-90
2022/03/12 06:06:48;;;;;;;;;;;;;;;0.91;31.99;98450.47;5071162;28;19924;-91
2022/03/12 06:09:17;;;;;;;;;;;;;;;0.93;31.83;98454.53;5068399;28;19928;-91
2022/03/12 06:11:46;;;;;;;;;;;;;;;0.99;32.15;98458.94;5074234;28;20016;-90
2022/03/12 06:14:17;;;;;;;;;;;;;;;0.97;31.86;98457.56;5070444;28;19963;-79
2022/03/12 06:16:48;;;;;;;;;;;;;;;1.07;31.79;98459.63;5052726;28;19931;-79
2022/03/12 06:19:18;;;;;;;;;;;;;;;0.99;32.20;98458.94;5071470;28;19928;-79
2022/03/12 06:21:46;;;;;;;;;;;;;;;0.99;32.09;98458.94;5071276;28;19932;-82
2022/03/12 06:24:18;;;;;;;;;;;;;;;0.99;31.66;98461.59;5042541;28;19925;-80
2022/03/12 06:26:46;;;;;;;;;;;;;;;1.10;32.23;98453.78;5068339;28;20153;-80
2022/03/12 06:29:17;;;;;;;;;;;;;;;0.99;32.41;98458.13;5034306;28;19928;-80
2022/03/12 06:31:50;;;;;;;;;;;;;;;1.04;32.23;98467.06;5067995;28;19932;-78
2022/03/12 06:34:19;;;;;;;;;;;;;;;1.20;31.58;98462.03;5072390;28;19959;-89
2022/03/12 06:36:47;;;;;;;;;;;;;;;1.23;31.65;98469.59;5064941;28;19928;-89
2022/03/12 06:39:17;;;;;;;;;;;;;;;1.18;31.85;98469.50;5072889;28;19924;-92
2022/03/12 06:42:11;;;;;;;;;;;;;;;1.11;32.18;98469.59;5052004;28;19925;-88
2022/03/12 06:44:54;;;;;;;;;;;;;;;1.18;31.92;98477.53;5075977;28;20062;-91
2022/03/12 06:51:23;;;;;;;;;;;;;;;1.17;32.02;98481.22;5051020;28;19925;-92
2022/03/12 06:54:26;;;;;;;;;;;;;;;0.84;32.15;98477.31;5035761;28;19931;-91
2022/03/12 06:56:59;;;;;;;;;;;;;;;1.09;32.45;98474.38;5018612;28;19924;-92
2022/03/12 06:59:30;;;;;;;;;;;;;;;1.35;31.75;98473.03;5017314;28;19925;-91
2022/03/12 07:01:58;;;;;;;;;;;;;;;1.38;32.01;98472.53;5050925;28;19928;-92
2022/03/12 07:04:28;;;;;;;;;;;;;;;1.43;31.21;98469.97;5015943;28;19940;-93
2022/03/12 07:07:54;;;;;;;;;;;;;;;1.44;31.04;98466.25;4991269;28;19926;-88
2022/03/12 07:10:25;;;;;;;;;;;;;;;1.53;31.69;98480.06;5001839;28;19968;-80
2022/03/12 07:13:18;;;;;;;;;;;;;;;1.44;31.05;98476.97;5052742;28;19928;-93
2022/03/12 07:15:46;;;;;;;;;;;;;;;1.44;31.12;98479.66;5052470;28;19925;-79
2022/03/12 07:18:17;;;;;;;;;;;;;;;1.40;32.16;98470.47;5049832;28;19924;-92
2022/03/12 07:20:49;;;;;;;;;;;;;;;1.38;31.63;98472.53;5053910;28;19998;-94
2022/03/12 07:23:21;;;;;;;;;;;;;;;1.49;31.38;98484.25;5055140;28;19933;-88
2022/03/12 07:28:32;;;;;;;;;;;;;;;1.64;30.89;98476.53;5040491;28;20019;-81
2022/03/12 07:31:01;;;;;;;;;;;;;;;1.68;30.99;98474.19;5047581;28;19997;-83
2022/03/12 07:33:31;;;;;;;;;;;;;;;1.79;30.38;98478.69;5048673;28;20390;-88
2022/03/12 07:36:03;;;;;;;;;;;;;;;1.81;30.33;98471.19;5048202;28;19932;-88
2022/03/12 07:38:34;;;;;;;;;;;;;;;1.90;30.62;98472.44;5048208;28;19925;-86
2022/03/12 07:41:02;;;;;;;;;;;;;;;1.96;30.36;98479.50;5047818;28;20348;-88
2022/03/12 07:43:37;;;;;;;;;;;;;;;1.84;30.80;98476.91;5048267;28;19924;-83
2022/03/12 07:46:08;;;;;;;;;;;;;;;2.09;30.01;98486.44;5048750;28;19925;-82
2022/03/12 07:48:37;;;;;;;;;;;;;;;2.23;29.39;98486.94;5031103;28;19957;-87
2022/03/12 07:51:13;;;;;;;;;;;;;;;1.95;29.54;98482.44;5047967;28;20470;-90
2022/03/12 07:53:45;;;;;;;;;;;;;;;2.15;29.97;98482.00;5050130;28;19971;-81
2022/03/12 07:56:17;;;;;;;;;;;;;;;2.07;29.69;98485.84;5050068;28;19933;-84
2022/03/12 07:58:48;;;;;;;;;;;;;;;2.15;29.25;98487.34;5047882;28;19933;-87
2022/03/12 08:01:17;;;;;;;;;;;;;;;2.35;29.62;98488.50;5049238;28;19933;-88
2022/03/12 08:03:46;;;;;;;;;;;;;;;2.47;29.00;98491.09;5049789;28;20019;-91
2022/03/12 08:06:18;;;;;;;;;;;;;;;2.17;29.95;98485.22;5049968;28;20027;-90
2022/03/12 08:09:10;;;;;;;;;;;;;;;2.44;29.80;98486.19;5048304;28;19944;-91
2022/03/12 08:11:38;;;;;;;;;;;;;;;2.58;28.84;98492.06;5048636;28;19984;-79
2022/03/12 08:14:15;;;;;;;;;;;;;;;2.76;28.67;98489.09;5050687;28;19925;-80
2022/03/12 08:16:45;;;;;;;;;;;;;;;2.75;29.20;98481.31;5047802;28;19933;-78
2022/03/12 08:19:13;;;;;;;;;;;;;;;2.66;28.94;98488.13;5049827;28;20011;-79
2022/03/12 08:21:41;;;;;;;;;;;;;;;2.94;28.60;98479.97;5036820;28;19924;-80
2022/03/12 08:24:15;;;;;;;;;;;;;;;2.99;28.66;98484.59;5047538;28;19952;-78
2022/03/12 08:26:43;;;;;;;;;;;;;;;3.22;28.77;98486.25;5042350;28;19976;-80
2022/03/12 08:33:24;;;;;;;;;;;;;;;3.49;28.12;98492.47;5036542;28;20028;-81
2022/03/12 08:35:53;;;;;;;;;;;;;;;3.65;27.89;98491.59;5025312;28;20031;-78
2022/03/12 08:38:20;;;;;;;;;;;;;;;3.60;28.00;98491.53;5045134;28;20391;-80
2022/03/12 08:40:48;;;;;;;;;;;;;;;3.91;27.32;98489.16;5046093;28;19933;-79
2022/03/12 08:43:21;;;;;;;;;;;;;;;3.93;27.01;98485.16;5044902;28;19943;-81
2022/03/12 08:46:14;;;;;;;;;;;;;;;3.93;27.83;98487.84;5052721;28;19924;-82
2022/03/12 08:48:54;;;;;;;;;;;;;;;4.20;26.76;98493.19;5067305;28;19924;-83
2022/03/12 08:51:22;;;;;;;;;;;;;;;4.29;27.93;98481.97;5067557;28;19929;-82
2022/03/12 08:53:50;;;;;;;;;;;;;;;4.39;27.44;98482.06;5068754;28;19925;-80
2022/03/12 08:56:19;;;;;;;;;;;;;;;4.04;27.00;98483.38;5069932;28;20028;-80
2022/03/12 08:58:47;;;;;;;;;;;;;;;4.33;26.75;98480.41;5067158;28;19925;-84
2022/03/12 09:01:15;;;;;;;;;;;;;;;4.52;26.84;98478.94;5067699;28;19925;-81
2022/03/12 09:03:44;;;;;;;;;;;;;;;4.69;26.22;98484.19;5071565;28;19928;-80
2022/03/12 09:06:15;;;;;;;;;;;;;;;5.01;24.99;98470.66;5066971;28;19959;-78
2022/03/12 09:09:09;;;;;;;;;;;;;;;5.13;26.52;98463.16;5071162;28;20393;-89
2022/03/12 09:11:38;;;;;;;;;;;;;;;5.34;25.77;98460.56;5073508;28;19925;-93
2022/03/12 09:14:06;;;;;;;;;;;;;;;5.57;25.48;98457.41;5074427;28;19956;-91
2022/03/12 09:16:36;;;;;;;;;;;;;;;5.82;25.08;98463.94;5076149;28;19983;-92
2022/03/12 09:19:05;;;;;;;;;;;;;;;6.01;25.62;98456.97;5073644;28;19942;-92
2022/03/12 09:21:35;;;;;;;;;;;;;;;6.14;24.24;98447.56;5074212;28;20266;-91
2022/03/12 09:24:07;;;;;;;;;;;;;;;6.22;24.16;98439.72;5074134;28;19924;-92
2022/03/12 09:26:35;;;;;;;;;;;;;;;6.42;22.63;98447.00;5074531;28;19924;-92
2022/03/12 09:29:08;;;;;;;;;;;;;;;6.56;22.92;98444.56;5073497;28;19935;-92
2022/03/12 09:31:37;;;;;;;;;;;;;;;6.33;22.55;98442.41;5054637;28;19971;-92
2022/03/12 09:34:12;;;;;;;;;;;;;;;6.19;22.85;98444.88;5060916;28;19958;-95
2022/03/12 09:36:51;;;;;;;;;;;;;;;6.06;23.21;98443.50;5074876;28;19952;-95
2022/03/12 09:39:22;;;;;;;;;;;;;;;6.08;25.25;98435.97;5064112;28;19924;-95
2022/03/12 09:41:52;;;;;;;;;;;;;;;6.55;24.32;98446.47;5069414;28;19964;-92
2022/03/12 09:44:22;;;;;;;;;;;;;;;6.47;22.91;98435.41;5066448;28;19947;-93
2022/03/12 09:46:56;;;;;;;;;;;;;;;6.76;24.11;98436.41;5053591;28;19925;-95
2022/03/12 09:49:26;;;;;;;;;;;;;;;6.91;26.85;98442.88;5045644;28;19983;-96
2022/03/12 09:52:00;;;;;;;;;;;;;;;6.59;23.12;98441.31;5037318;28;20052;-95
2022/03/12 09:54:35;;;;;;;;;;;;;;;6.83;23.50;98439.66;5051769;28;19924;-95
2022/03/12 09:57:06;;;;;;;;;;;;;;;6.84;23.51;98443.16;5055598;28;19925;-91
2022/03/12 09:59:34;;;;;;;;;;;;;;;7.12;24.12;98438.22;5044638;28;19928;-93
2022/03/12 10:02:06;;;;;;;;;;;;;;;7.34;22.94;98441.38;5027216;28;19929;-95
2022/03/12 10:04:35;;;;;;;;;;;;;;;7.46;23.04;98435.66;5018117;28;20364;-94
2022/03/12 10:07:06;;;;;;;;;;;;;;;7.67;22.80;98439.03;5036624;28;19924;-91
2022/03/12 10:09:34;;;;;;;;;;;;;;;7.89;21.72;98436.75;5050631;28;20019;-88
2022/03/12 10:12:02;;;;;;;;;;;;;;;7.86;21.17;98434.59;5038073;28;19925;-83
2022/03/12 10:14:30;;;;;;;;;;;;;;;7.87;21.40;98434.31;5015298;28;19925;-80
2022/03/12 10:17:00;;;;;;;;;;;;;;;7.51;22.19;98420.22;5054332;28;19924;-89
2022/03/12 10:19:29;;;;;;;;;;;;;;;7.26;23.15;98421.16;5047195;28;20383;-79
2022/03/12 10:21:57;;;;;;;;;;;;;;;7.53;23.12;98418.03;5051935;28;20039;-80
2022/03/12 10:24:26;;;;;;;;;;;;;;;7.92;22.90;98414.53;5044028;28;19933;-91
2022/03/12 10:26:54;;;;;;;;;;;;;;;8.15;21.70;98413.03;5048271;28;19995;-90
2022/03/12 10:29:22;;;;;;;;;;;;;;;8.29;21.57;98408.56;5051623;28;20259;-86
2022/03/12 10:31:50;;;;;;;;;;;;;;;8.14;21.95;98417.63;5051962;28;19928;-87
2022/03/12 10:34:21;;;;;;;;;;;;;;;7.95;22.07;98416.69;5051556;28;19979;-84
2022/03/12 10:36:49;;;;;;;;;;;;;;;8.27;23.34;98427.00;5051579;28;19925;-84
2022/03/12 10:39:18;;;;;;;;;;;;;;;8.40;22.78;98420.94;5052108;28;19940;-84
2022/03/12 10:41:47;;;;;;;;;;;;;;;8.61;22.19;98420.75;5012357;28;20383;-90
2022/03/12 10:44:15;;;;;;;;;;;;;;;8.85;22.22;98399.94;5051449;28;20363;-86
2022/03/12 10:46:44;;;;;;;;;;;;;;;8.89;21.40;98400.16;5065706;28;19986;-86
2022/03/12 10:49:13;;;;;;;;;;;;;;;8.48;21.83;98399.78;5073765;28;19951;-84
2022/03/12 10:51:41;;;;;;;;;;;;;;;7.95;21.81;98392.34;5071925;28;19986;-86
2022/03/12 10:54:10;;;;;;;;;;;;;;;8.47;22.77;98398.16;5064691;28;19924;-90
2022/03/12 10:56:42;;;;;;;;;;;;;;;8.71;21.86;98388.16;5064869;28;19925;-91
2022/03/12 10:59:19;;;;;;;;;;;;;;;7.95;22.15;98407.78;5075303;28;19924;-93
2022/03/12 11:01:54;;;;;;;;;;;;;;;8.06;22.17;98403.91;5073395;28;19924;-90
2022/03/12 11:04:24;;;;;;;;;;;;;;;7.90;21.80;98400.50;5082117;28;20390;-94
2022/03/12 11:06:52;;;;;;;;;;;;;;;8.35;21.93;98391.19;5052307;28;20299;-93
2022/03/12 11:09:32;;;;;;;;;;;;;;;8.60;21.47;98397.50;5076400;28;19924;-94
2022/03/12 11:12:00;;;;;;;;;;;;;;;8.92;21.47;98386.03;5069079;28;19928;-94
2022/03/12 11:14:31;;;;;;;;;;;;;;;9.19;21.72;98383.53;5076019;28;19931;-92
2022/03/12 11:16:59;;;;;;;;;;;;;;;9.40;21.96;98378.66;5067499;28;19929;-94
2022/03/12 11:19:42;;;;;;;;;;;;;;;9.66;22.61;98381.00;5071880;28;19995;-79
2022/03/12 11:22:11;;;;;;;;;;;;;;;9.86;21.19;98380.72;5071934;28;20423;-85
2022/03/12 11:24:45;;;;;;;;;;;;;;;9.67;21.75;98382.63;5070592;28;20446;-89
2022/03/12 11:27:13;;;;;;;;;;;;;;;9.73;21.77;98381.44;5065484;28;19959;-85
2022/03/12 11:29:43;;;;;;;;;;;;;;;9.61;22.99;98379.19;5066509;28;19929;-86
2022/03/12 11:32:11;;;;;;;;;;;;;;;9.88;21.61;98377.69;5067868;28;19933;-87
2022/03/12 11:34:40;;;;;;;;;;;;;;;10.03;22.47;98376.66;5069661;28;19928;-84
2022/03/12 11:37:09;;;;;;;;;;;;;;;10.16;21.49;98373.16;5051509;28;19928;-87
2022/03/12 11:39:39;;;;;;;;;;;;;;;10.05;21.86;98367.09;5065712;28;19972;-86
2022/03/12 11:42:11;;;;;;;;;;;;;;;10.27;21.59;98371.13;5064379;28;19971;-86
2022/03/12 11:44:40;;;;;;;;;;;;;;;9.48;21.64;98362.81;5070711;28;19932;-86
2022/03/12 11:47:10;;;;;;;;;;;;;;;9.61;22.02;98367.53;5067340;28;19974;-88
2022/03/12 11:49:38;;;;;;;;;;;;;;;9.34;21.45;98355.41;5065767;28;19929;-86
2022/03/12 11:52:07;;;;;;;;;;;;;;;9.72;22.86;98355.41;5048242;28;19925;-86
2022/03/12 11:54:43;;;;;;;;;;;;;;;9.82;23.67;98347.13;5064063;28;19924;-84
2022/03/12 11:57:11;;;;;;;;;;;;;;;10.09;21.68;98351.03;5050632;28;20275;-86
2022/03/12 11:59:40;;;;;;;;;;;;;;;10.34;21.91;98349.84;5047785;28;19938;-86
2022/03/12 12:02:29;;;;;;;;;;;;;;;10.34;22.67;98347.91;5067796;28;19924;-83
2022/03/12 12:04:59;;;;;;;;;;;;;;;10.60;21.66;98352.88;5049175;28;19929;-84
2022/03/12 12:07:33;;;;;;;;;;;;;;;10.71;22.70;98351.59;5064980;28;20281;-80
2022/03/12 12:10:06;;;;;;;;;;;;;;;9.76;21.40;98336.66;5064368;28;20319;-87
2022/03/12 12:12:49;;;;;;;;;;;;;;;9.37;23.77;98338.56;5050327;28;19932;-86
2022/03/12 12:15:19;;;;;;;;;;;;;;;9.68;21.58;98335.41;5068107;28;19924;-86
2022/03/12 12:17:51;;;;;;;;;;;;;;;9.84;21.89;98334.06;5066954;28;19925;-87
2022/03/12 12:20:21;;;;;;;;;;;;;;;10.03;22.68;98333.22;5068924;28;20012;-86
2022/03/12 12:22:53;;;;;;;;;;;;;;;10.11;21.71;98332.53;5069595;28;20023;-86
2022/03/12 12:25:22;;;;;;;;;;;;;;;10.56;21.65;98330.16;5048951;28;19924;-86
2022/03/12 12:27:50;;;;;;;;;;;;;;;10.66;21.95;98328.03;5062044;28;20016;-84
2022/03/12 12:30:37;;;;;;;;;;;;;;;10.40;21.70;98324.19;5063697;28;19924;-86
2022/03/12 12:33:17;;;;;;;;;;;;;;;10.16;21.87;98308.81;5068108;28;19940;-86
2022/03/12 12:35:46;;;;;;;;;;;;;;;10.45;21.33;98311.31;5066312;28;20413;-85
2022/03/12 12:38:14;;;;;;;;;;;;;;;10.30;22.00;98308.88;5070855;28;19931;-84
2022/03/12 12:40:43;;;;;;;;;;;;;;;10.72;21.61;98299.66;5068158;28;19944;-85
2022/03/12 12:43:36;;;;;;;;;;;;;;;10.40;21.77;98297.84;5070643;28;19932;-85
2022/03/12 12:46:30;;;;;;;;;;;;;;;9.91;22.16;98296.50;5069477;28;19932;-87
2022/03/12 12:49:01;;;;;;;;;;;;;;;9.79;22.28;98282.56;5069851;28;19929;-84
2022/03/12 12:51:30;;;;;;;;;;;;;;;10.23;21.11;98276.69;5070846;28;19924;-86
2022/03/12 12:54:02;;;;;;;;;;;;;;;10.47;21.72;98270.25;5047214;28;19932;-84
2022/03/12 12:56:30;;;;;;;;;;;;;;;10.46;21.93;98264.03;5065703;28;19925;-81
2022/03/12 12:59:06;;;;;;;;;;;;;;;10.09;22.51;98266.88;5067907;28;19975;-86
2022/03/12 13:01:36;;;;;;;;;;;;;;;10.29;22.63;98269.25;5069956;28;19924;-86
2022/03/12 13:04:08;;;;;;;;;;;;;;;10.40;22.66;98265.25;5066707;28;19924;-85
2022/03/12 13:06:42;;;;;;;;;;;;;;;10.72;22.54;98256.16;5069233;28;19928;-85
2022/03/12 13:09:11;;;;;;;;;;;;;;;10.77;23.36;98251.75;5067998;28;19928;-85
2022/03/12 13:11:40;;;;;;;;;;;;;;;11.08;21.75;98254.59;5065991;28;20438;-86
2022/03/12 13:14:08;;;;;;;;;;;;;;;11.33;21.73;98255.94;5068245;28;20409;-82
2022/03/12 13:16:48;;;;;;;;;;;;;;;10.85;20.98;98251.81;5071451;28;20382;-85
2022/03/12 13:19:28;;;;;;;;;;;;;;;10.83;21.96;98251.31;5054585;28;19931;-85
2022/03/12 13:21:56;;;;;;;;;;;;;;;10.81;21.68;98245.38;5068310;28;20406;-82
2022/03/12 13:24:24;;;;;;;;;;;;;;;11.11;21.21;98241.19;5073536;28;20029;-83
2022/03/12 13:26:52;;;;;;;;;;;;;;;10.83;21.91;98228.78;5070944;28;19970;-83